createdAt,value
2023-02-09T00:00:26.062Z,-6.80
2023-02-09T00:02:54.562Z,-6.90
2023-02-09T00:05:25.058Z,-7.00
2023-02-09T00:07:55.046Z,-6.80
2023-02-09T00:10:28.118Z,-7.00
2023-02-09T00:13:14.149Z,-7.10
2023-02-09T00:15:52.371Z,-7.00
2023-02-09T00:18:22.516Z,-7.00
2023-02-09T00:20:57.412Z,-7.10
2023-02-09T00:23:28.038Z,-7.10
2023-02-09T00:25:56.868Z,-7.20
2023-02-09T00:28:25.346Z,-7.20
2023-02-09T00:30:53.874Z,-7.30
2023-02-09T00:33:26.795Z,-7.30
2023-02-09T00:35:55.355Z,-7.30
2023-02-09T00:38:25.560Z,-7.30
2023-02-09T00:40:55.510Z,-7.20
2023-02-09T00:43:24.141Z,-7.20
2023-02-09T00:45:54.287Z,-7.10
2023-02-09T00:48:22.889Z,-7.20
2023-02-09T00:50:52.435Z,-7.10
2023-02-09T00:53:22.279Z,-7.10
2023-02-09T00:55:51.181Z,-7.00
2023-02-09T00:58:21.096Z,-7.00
2023-02-09T01:00:51.804Z,-6.90
2023-02-09T01:03:22.137Z,-6.90
2023-02-09T01:05:54.118Z,-6.80
2023-02-09T01:08:25.537Z,-6.80
2023-02-09T01:10:56.045Z,-6.80
2023-02-09T01:13:26.355Z,-6.70
2023-02-09T01:15:54.789Z,-6.70
2023-02-09T01:18:24.403Z,-6.70
2023-02-09T01:20:52.812Z,-6.80
2023-02-09T01:23:21.176Z,-6.70
2023-02-09T01:25:49.620Z,-6.70
2023-02-09T01:28:18.151Z,-6.50
2023-02-09T01:30:48.410Z,-6.70
2023-02-09T01:33:17.130Z,-6.60
2023-02-09T01:35:45.635Z,-6.60
2023-02-09T01:38:14.070Z,-6.40
2023-02-09T01:40:48.576Z,-6.40
2023-02-09T01:43:19.182Z,-6.20
2023-02-09T01:45:51.324Z,-6.30
2023-02-09T01:48:23.323Z,-6.30
2023-02-09T01:50:55.997Z,-6.10
2023-02-09T01:53:28.869Z,-6.10
2023-02-09T01:56:05.472Z,-6.00
2023-02-09T01:58:37.632Z,-6.10
2023-02-09T02:01:20.123Z,-6.00
2023-02-09T02:03:48.884Z,-5.90
2023-02-09T02:06:21.718Z,-6.00
2023-02-09T02:08:56.746Z,-5.90
2023-02-09T02:11:27.728Z,-5.80
2023-02-09T02:14:00.348Z,-5.90
2023-02-09T02:16:45.798Z,-5.80
2023-02-09T02:19:41.773Z,-6.00
2023-02-09T02:22:32.286Z,-5.80
2023-02-09T02:25:46.033Z,-5.80
2023-02-09T02:28:39.448Z,-5.80
2023-02-09T02:31:53.667Z,-5.80
2023-02-09T02:34:28.506Z,-5.80
2023-02-09T02:37:07.153Z,-5.80
2023-02-09T02:39:54.216Z,-5.80
2023-02-09T02:42:44.184Z,-5.70
2023-02-09T02:45:19.782Z,-5.60
2023-02-09T02:47:56.422Z,-5.60
2023-02-09T02:50:29.695Z,-5.60
2023-02-09T02:53:00.774Z,-5.60
2023-02-09T02:55:33.096Z,-5.50
2023-02-09T02:58:09.049Z,-5.50
2023-02-09T03:00:42.946Z,-5.50
2023-02-09T03:03:17.263Z,-5.50
2023-02-09T03:05:46.710Z,-5.40
2023-02-09T03:08:15.196Z,-5.40
2023-02-09T03:10:44.538Z,-5.30
2023-02-09T03:13:38.184Z,-5.30
2023-02-09T03:16:27.932Z,-5.30
2023-02-09T03:19:09.865Z,-5.30
2023-02-09T03:21:47.727Z,-5.30
2023-02-09T03:24:30.598Z,-5.20
2023-02-09T03:27:06.149Z,-5.40
2023-02-09T03:29:36.297Z,-5.20
2023-02-09T03:32:05.570Z,-5.30
2023-02-09T03:34:37.828Z,-5.30
2023-02-09T03:37:06.460Z,-5.30
2023-02-09T03:39:37.162Z,-5.30
2023-02-09T03:42:06.115Z,-5.40
2023-02-09T03:44:36.807Z,-5.40
2023-02-09T03:47:07.264Z,-5.40
2023-02-09T03:49:39.649Z,-5.40
2023-02-09T03:52:13.468Z,-5.30
2023-02-09T03:54:42.242Z,-5.40
2023-02-09T03:57:16.492Z,-5.40
2023-02-09T03:59:45.063Z,-5.40
2023-02-09T04:02:13.574Z,-5.50
2023-02-09T04:04:43.631Z,-5.50
2023-02-09T04:07:16.896Z,-5.50
2023-02-09T04:09:45.513Z,-5.40
2023-02-09T04:12:14.103Z,-5.50
2023-02-09T04:14:42.605Z,-5.40
2023-02-09T04:17:11.060Z,-5.30
2023-02-09T04:19:40.822Z,-5.40
2023-02-09T04:22:11.941Z,-5.40
2023-02-09T04:24:48.054Z,-5.30
2023-02-09T04:27:16.545Z,-5.60
2023-02-09T04:29:44.981Z,-5.50
2023-02-09T04:32:13.474Z,-5.60
2023-02-09T04:34:41.941Z,-5.50
2023-02-09T04:37:13.365Z,-5.60
2023-02-09T04:39:41.896Z,-5.70
2023-02-09T04:42:17.079Z,-5.60
2023-02-09T04:44:47.807Z,-5.70
2023-02-09T04:47:20.913Z,-5.70
2023-02-09T04:49:53.344Z,-5.80
2023-02-09T04:52:25.693Z,-5.70
2023-02-09T04:54:54.216Z,-5.80
2023-02-09T04:57:42.922Z,-5.90
2023-02-09T05:00:12.722Z,-5.90
2023-02-09T05:02:46.874Z,-6.00
2023-02-09T05:05:15.229Z,-6.10
2023-02-09T05:07:46.847Z,-6.10
2023-02-09T05:10:15.156Z,-6.10
2023-02-09T05:12:43.428Z,-6.10
2023-02-09T05:15:15.741Z,-6.10
2023-02-09T05:17:48.779Z,-6.10
2023-02-09T05:20:17.609Z,-6.30
2023-02-09T05:22:50.154Z,-6.30
2023-02-09T05:25:18.858Z,-6.30
2023-02-09T05:27:47.176Z,-6.20
2023-02-09T05:30:15.899Z,-6.40
2023-02-09T05:32:44.397Z,-6.30
2023-02-09T05:35:12.802Z,-6.50
2023-02-09T05:37:41.217Z,-6.40
2023-02-09T05:40:13.834Z,-6.20
2023-02-09T05:42:43.615Z,-6.40
2023-02-09T05:45:12.439Z,-6.50
2023-02-09T05:47:40.889Z,-6.60
2023-02-09T05:50:09.727Z,-6.60
2023-02-09T05:52:38.182Z,-6.80
2023-02-09T05:55:07.314Z,-6.70
2023-02-09T05:57:43.057Z,-6.80
2023-02-09T06:00:13.164Z,-6.90
2023-02-09T06:02:41.688Z,-6.90
2023-02-09T06:05:10.326Z,-7.00
2023-02-09T06:07:38.632Z,-6.90
2023-02-09T06:10:07.409Z,-7.00
2023-02-09T06:12:37.094Z,-7.00
2023-02-09T06:15:09.501Z,-7.00
2023-02-09T06:17:38.235Z,-7.00
2023-02-09T06:20:07.718Z,-7.00
2023-02-09T06:22:39.339Z,-7.00
2023-02-09T06:25:08.530Z,-6.90
2023-02-09T06:27:39.010Z,-7.00
2023-02-09T06:30:12.977Z,-7.00
2023-02-09T06:32:43.493Z,-7.10
2023-02-09T06:35:15.265Z,-7.10
2023-02-09T06:37:43.812Z,-7.00
2023-02-09T06:40:16.039Z,-7.00
2023-02-09T06:42:46.157Z,-7.00
2023-02-09T06:45:18.533Z,-7.00
2023-02-09T06:47:50.531Z,-7.00
2023-02-09T06:50:21.408Z,-7.00
2023-02-09T06:53:00.264Z,-6.90
2023-02-09T06:55:35.804Z,-6.90
2023-02-09T06:58:09.396Z,-6.80
2023-02-09T07:00:40.977Z,-6.80
2023-02-09T07:03:14.384Z,-6.70
2023-02-09T07:05:53.526Z,-6.80
2023-02-09T07:08:28.215Z,-6.70
2023-02-09T07:11:09.905Z,-6.50
2023-02-09T07:13:40.516Z,-6.50
2023-02-09T07:16:18.768Z,-6.50
2023-02-09T07:18:47.301Z,-6.30
2023-02-09T07:21:20.198Z,-6.20
2023-02-09T07:23:52.778Z,-6.10
2023-02-09T07:26:24.596Z,-6.20
2023-02-09T07:28:57.008Z,-6.00
2023-02-09T07:31:29.381Z,-6.00
2023-02-09T07:33:58.438Z,-5.90
2023-02-09T07:36:27.168Z,-5.90
2023-02-09T07:38:59.761Z,-5.80
2023-02-09T07:41:28.775Z,-5.80
2023-02-09T07:44:01.374Z,-5.70
2023-02-09T07:46:29.977Z,-5.60
2023-02-09T07:49:01.372Z,-5.10
2023-02-09T07:51:32.342Z,-4.40
2023-02-09T07:54:02.230Z,-3.50
2023-02-09T07:56:33.710Z,-3.00
2023-02-09T07:59:10.795Z,-2.70
2023-02-09T08:01:56.584Z,-2.70
2023-02-09T08:05:50.218Z,-3.00
2023-02-09T08:08:50.656Z,-3.10
2023-02-09T08:11:40.447Z,-3.30
2023-02-09T08:14:32.286Z,-3.50
2023-02-09T08:17:28.076Z,-3.40
2023-02-09T08:20:01.019Z,-3.50
2023-02-09T08:22:39.051Z,-3.40
2023-02-09T08:25:20.969Z,-3.30
2023-02-09T08:27:56.806Z,-3.30
2023-02-09T08:30:28.506Z,-3.20
2023-02-09T08:33:02.936Z,-3.20
2023-02-09T08:35:31.634Z,-3.10
2023-02-09T08:38:07.891Z,-3.20
2023-02-09T08:40:46.943Z,-3.10
2023-02-09T08:43:17.550Z,-3.00
2023-02-09T08:45:47.960Z,-2.90
2023-02-09T08:48:27.805Z,-2.90
2023-02-09T08:51:10.580Z,-2.90
2023-02-09T08:53:41.494Z,-2.90
2023-02-09T08:56:10.475Z,-2.80
2023-02-09T08:58:47.930Z,-2.60
2023-02-09T09:01:18.365Z,-2.60
2023-02-09T09:03:49.666Z,-2.30
2023-02-09T09:06:22.441Z,-2.40
2023-02-09T09:09:03.288Z,-2.10
2023-02-09T09:11:39.151Z,-2.10
2023-02-09T09:14:11.630Z,-2.10
2023-02-09T09:16:44.012Z,-2.10
2023-02-09T09:19:12.773Z,-2.00
2023-02-09T09:21:44.566Z,-1.90
2023-02-09T09:24:18.824Z,-1.80
2023-02-09T09:26:50.910Z,-1.80
2023-02-09T09:29:20.880Z,-1.70
2023-02-09T09:32:03.465Z,-1.60
2023-02-09T09:34:32.542Z,-1.70
2023-02-09T09:37:01.020Z,-1.50
2023-02-09T09:39:32.456Z,-1.60
2023-02-09T09:42:02.123Z,-1.50
2023-02-09T09:44:34.645Z,-1.40
2023-02-09T09:47:11.159Z,-1.30
2023-02-09T09:49:40.370Z,-1.30
2023-02-09T09:52:14.693Z,-1.40
2023-02-09T09:54:43.419Z,-1.30
2023-02-09T09:57:21.177Z,-1.20
2023-02-09T09:59:53.545Z,-1.10
2023-02-09T10:02:29.570Z,-1.10
2023-02-09T10:05:03.728Z,-1.00
2023-02-09T10:07:35.204Z,-1.00
2023-02-09T10:10:10.368Z,-0.90
2023-02-09T10:12:46.641Z,-0.70
2023-02-09T10:15:27.853Z,-0.70
2023-02-09T10:18:25.324Z,-0.60
2023-02-09T10:21:06.415Z,-0.60
2023-02-09T10:23:41.077Z,-0.50
2023-02-09T10:26:25.057Z,-0.40
2023-02-09T10:28:55.510Z,-0.30
2023-02-09T10:31:27.838Z,-0.20
2023-02-09T10:34:03.295Z,0.00
2023-02-09T10:36:34.356Z,0.10
2023-02-09T10:39:15.183Z,0.20
2023-02-09T10:41:47.099Z,0.30
2023-02-09T10:44:24.968Z,0.40
2023-02-09T10:47:15.280Z,0.60
2023-02-09T10:49:54.309Z,0.60
2023-02-09T10:52:24.388Z,0.80
2023-02-09T10:54:57.873Z,0.90
2023-02-09T10:57:29.128Z,1.00
2023-02-09T11:00:00.817Z,1.10
2023-02-09T11:02:44.050Z,1.10
2023-02-09T11:05:32.768Z,1.00
2023-02-09T11:08:13.744Z,1.20
2023-02-09T11:10:46.533Z,1.20
2023-02-09T11:13:26.199Z,1.40
2023-02-09T11:16:21.810Z,1.50
2023-02-09T11:18:56.716Z,1.70
2023-02-09T11:21:38.005Z,2.10
2023-02-09T11:24:14.155Z,2.40
2023-02-09T11:26:51.466Z,3.00
2023-02-09T11:29:29.842Z,2.90
2023-02-09T11:32:17.282Z,3.10
2023-02-09T11:35:10.399Z,3.40
2023-02-09T11:37:46.753Z,3.50
2023-02-09T11:40:27.285Z,3.40
2023-02-09T11:43:15.811Z,3.40
2023-02-09T11:45:46.839Z,3.50
2023-02-09T11:48:23.565Z,3.50
2023-02-09T11:51:02.012Z,3.40
2023-02-09T11:53:40.814Z,3.40
2023-02-09T11:56:12.232Z,3.50
2023-02-09T11:58:49.765Z,3.40
2023-02-09T12:01:27.356Z,3.20
2023-02-09T12:04:02.982Z,3.00
2023-02-09T12:06:39.606Z,2.90
2023-02-09T12:09:27.574Z,3.00
2023-02-09T12:12:06.017Z,2.90
2023-02-09T12:14:59.750Z,3.10
2023-02-09T12:17:37.556Z,3.00
2023-02-09T12:20:09.320Z,2.80
2023-02-09T12:22:53.627Z,2.90
2023-02-09T12:25:46.277Z,2.90
2023-02-09T12:28:34.678Z,2.80
2023-02-09T12:31:08.183Z,2.80
2023-02-09T12:33:38.684Z,2.70
2023-02-09T12:36:28.744Z,2.60
2023-02-09T12:39:07.536Z,2.70
2023-02-09T12:42:20.529Z,2.90
2023-02-09T12:44:58.445Z,2.70
2023-02-09T12:47:48.373Z,2.50
2023-02-09T12:50:34.443Z,2.50
2023-02-09T12:53:35.785Z,2.50
2023-02-09T12:56:23.797Z,2.60
2023-02-09T12:58:57.131Z,2.60
2023-02-09T13:02:11.130Z,2.60
2023-02-09T13:04:46.246Z,2.50
2023-02-09T13:07:25.121Z,2.50
2023-02-09T13:09:58.472Z,2.60
2023-02-09T13:12:39.046Z,2.60
2023-02-09T13:15:18.430Z,2.50
2023-02-09T13:18:02.299Z,2.60
2023-02-09T13:20:57.931Z,2.60
2023-02-09T13:23:35.140Z,2.60
2023-02-09T13:26:17.085Z,2.60
2023-02-09T13:28:45.563Z,2.60
2023-02-09T13:31:34.290Z,2.50
2023-02-09T13:34:12.083Z,2.50
2023-02-09T13:36:47.439Z,2.40
2023-02-09T13:39:24.963Z,2.50
2023-02-09T13:41:56.992Z,2.50
2023-02-09T13:44:28.468Z,2.50
2023-02-09T13:46:59.193Z,2.40
2023-02-09T13:49:30.822Z,2.40
2023-02-09T13:52:17.170Z,2.40
2023-02-09T13:54:45.946Z,2.40
2023-02-09T13:57:39.405Z,2.40
2023-02-09T14:00:26.728Z,2.50
2023-02-09T14:02:58.820Z,2.50
2023-02-09T14:05:35.539Z,2.50
2023-02-09T14:08:04.391Z,2.50
2023-02-09T14:10:37.395Z,2.50
2023-02-09T14:13:08.961Z,2.50
2023-02-09T14:15:57.281Z,2.50
2023-02-09T14:18:32.060Z,2.50
2023-02-09T14:21:16.174Z,2.40
2023-02-09T14:23:46.733Z,2.40
2023-02-09T14:26:26.233Z,2.30
2023-02-09T14:29:05.626Z,2.30
2023-02-09T14:31:39.217Z,2.20
2023-02-09T14:34:25.832Z,2.20
2023-02-09T14:36:57.240Z,2.20
2023-02-09T14:39:25.937Z,2.10
2023-02-09T14:42:09.264Z,2.00
2023-02-09T14:44:48.109Z,2.00
2023-02-09T14:47:39.149Z,2.00
2023-02-09T14:50:09.827Z,1.90
2023-02-09T14:52:46.770Z,2.00
2023-02-09T14:55:30.495Z,1.90
2023-02-09T14:58:09.237Z,1.90
2023-02-09T15:00:37.972Z,1.80
2023-02-09T15:03:06.557Z,1.80
2023-02-09T15:05:37.277Z,1.70
2023-02-09T15:08:10.216Z,1.70
2023-02-09T15:10:43.955Z,1.70
2023-02-09T15:13:14.721Z,1.60
2023-02-09T15:15:46.670Z,1.60
2023-02-09T15:18:22.477Z,1.50
2023-02-09T15:20:53.379Z,1.50
2023-02-09T15:23:23.341Z,1.50
2023-02-09T15:25:51.829Z,1.30
2023-02-09T15:28:28.880Z,1.30
2023-02-09T15:30:58.419Z,1.30
2023-02-09T15:33:27.375Z,1.00
2023-02-09T15:36:00.133Z,1.00
2023-02-09T15:38:30.240Z,1.00
2023-02-09T15:41:16.145Z,1.10
2023-02-09T15:44:01.937Z,0.90
2023-02-09T15:46:47.719Z,0.80
2023-02-09T15:49:16.074Z,0.70
2023-02-09T15:51:44.692Z,0.60
2023-02-09T15:54:18.871Z,0.70
2023-02-09T15:56:48.271Z,0.60
2023-02-09T15:59:24.237Z,0.60
2023-02-09T16:02:03.589Z,0.60
2023-02-09T16:04:33.470Z,0.50
2023-02-09T16:07:03.239Z,0.40
2023-02-09T16:09:34.843Z,0.30
2023-02-09T16:12:10.094Z,0.20
2023-02-09T16:14:45.033Z,0.20
2023-02-09T16:17:18.606Z,0.10
2023-02-09T16:19:49.238Z,0.10
2023-02-09T16:22:29.322Z,0.10
2023-02-09T16:25:25.084Z,-0.10
2023-02-09T16:28:21.129Z,0.10
2023-02-09T16:31:01.646Z,-0.10
2023-02-09T16:33:31.746Z,-0.20
2023-02-09T16:36:05.610Z,-0.20
2023-02-09T16:38:39.910Z,-0.20
2023-02-09T16:41:39.822Z,-0.30
2023-02-09T16:44:26.432Z,-0.40
2023-02-09T16:47:00.020Z,-0.50
2023-02-09T16:49:36.610Z,-0.50
2023-02-09T16:52:15.753Z,-0.60
2023-02-09T16:54:49.579Z,-0.60
2023-02-09T16:57:24.025Z,-0.70
2023-02-09T16:59:57.369Z,-0.60
2023-02-09T17:02:39.702Z,-0.70
2023-02-09T17:05:33.032Z,-0.80
2023-02-09T17:08:07.916Z,-0.80
2023-02-09T17:10:40.790Z,-0.90
2023-02-09T17:13:21.908Z,-0.90
2023-02-09T17:16:04.846Z,-0.90
2023-02-09T17:18:44.716Z,-0.80
2023-02-09T17:21:35.839Z,-0.80
2023-02-09T17:24:17.203Z,-0.90
2023-02-09T17:26:52.664Z,-0.90
2023-02-09T17:29:25.210Z,-1.00
2023-02-09T17:31:57.699Z,-1.00
2023-02-09T17:34:29.361Z,-1.00
2023-02-09T17:37:01.404Z,-1.00
2023-02-09T17:39:31.337Z,-1.00
2023-02-09T17:42:16.621Z,-0.90
2023-02-09T17:44:57.828Z,-0.90
2023-02-09T17:47:35.502Z,-1.00
2023-02-09T17:50:06.500Z,-0.90
2023-02-09T17:52:40.072Z,-1.00
2023-02-09T17:55:17.464Z,-0.90
2023-02-09T17:57:50.960Z,-0.90
2023-02-09T18:00:36.884Z,-1.00
2023-02-09T18:03:21.501Z,-0.90
2023-02-09T18:06:02.510Z,-0.90
2023-02-09T18:08:36.895Z,-1.00
2023-02-09T18:11:15.434Z,-1.00
2023-02-09T18:13:44.087Z,-1.00
2023-02-09T18:16:14.226Z,-1.00
2023-02-09T18:18:45.099Z,-1.10
2023-02-09T18:21:18.954Z,-1.00
2023-02-09T18:23:47.802Z,-1.00
2023-02-09T18:26:22.565Z,-1.10
2023-02-09T18:28:51.747Z,-1.00
2023-02-09T18:31:24.800Z,-1.10
2023-02-09T18:33:54.058Z,-1.10
2023-02-09T18:36:27.973Z,-1.00
2023-02-09T18:39:02.554Z,-1.20
2023-02-09T18:41:31.058Z,-1.10
2023-02-09T18:43:59.452Z,-1.10
2023-02-09T18:46:29.224Z,-1.10
2023-02-09T18:48:57.805Z,-1.10
2023-02-09T18:51:28.466Z,-1.10
2023-02-09T18:53:58.082Z,-1.20
2023-02-09T18:56:28.461Z,-1.20
2023-02-09T18:58:56.991Z,-1.10
2023-02-09T19:01:26.120Z,-1.10
2023-02-09T19:03:56.217Z,-0.90
2023-02-09T19:06:26.129Z,-0.90
2023-02-09T19:08:55.194Z,-0.90
2023-02-09T19:11:24.786Z,-0.80
2023-02-09T19:14:11.181Z,-0.90
2023-02-09T19:16:41.228Z,-1.00
2023-02-09T19:19:14.598Z,-1.00
2023-02-09T19:21:53.732Z,-0.90
2023-02-09T19:24:26.719Z,-0.90
2023-02-09T19:27:01.495Z,-1.00
2023-02-09T19:29:31.611Z,-0.90
2023-02-09T19:32:03.181Z,-1.00
2023-02-09T19:34:38.865Z,-1.00
2023-02-09T19:37:11.816Z,-0.90
2023-02-09T19:39:42.892Z,-0.90
2023-02-09T19:42:13.292Z,-0.90
2023-02-09T19:44:49.181Z,-0.90
2023-02-09T19:47:25.864Z,-0.70
2023-02-09T19:50:03.989Z,-0.90
2023-02-09T19:52:47.653Z,-1.00
2023-02-09T19:55:20.375Z,-1.00
2023-02-09T19:57:55.642Z,-1.00
2023-02-09T20:00:28.398Z,-0.90
2023-02-09T20:02:59.790Z,-1.00
2023-02-09T20:05:35.520Z,-1.10
2023-02-09T20:08:05.394Z,-1.10
2023-02-09T20:10:40.710Z,-1.10
2023-02-09T20:13:12.164Z,-1.10
2023-02-09T20:15:43.724Z,-1.10
2023-02-09T20:18:23.011Z,-1.20
2023-02-09T20:20:52.924Z,-1.20
2023-02-09T20:23:21.501Z,-1.20
2023-02-09T20:25:50.102Z,-1.20
2023-02-09T20:28:18.718Z,-1.20
2023-02-09T20:30:50.741Z,-1.30
2023-02-09T20:33:27.931Z,-1.20
2023-02-09T20:35:59.951Z,-1.20
2023-02-09T20:38:34.907Z,-1.10
2023-02-09T20:41:09.775Z,-1.20
2023-02-09T20:43:57.396Z,-1.10
2023-02-09T20:46:44.931Z,-1.10
2023-02-09T20:49:16.352Z,-1.20
2023-02-09T20:51:51.083Z,-1.20
2023-02-09T20:54:19.913Z,-1.20
2023-02-09T20:56:48.481Z,-1.20
2023-02-09T20:59:17.954Z,-1.20
2023-02-09T21:01:48.168Z,-1.10
2023-02-09T21:04:21.026Z,-1.20
2023-02-09T21:06:54.259Z,-1.20
2023-02-09T21:09:26.549Z,-1.00
2023-02-09T21:11:57.189Z,-1.10
2023-02-09T21:14:32.594Z,-1.10
2023-02-09T21:17:09.179Z,-1.00
2023-02-09T21:19:39.732Z,-1.00
2023-02-09T21:22:09.912Z,-1.00
2023-02-09T21:24:38.944Z,-0.90
2023-02-09T21:27:08.737Z,-1.10
2023-02-09T21:29:37.572Z,-1.10
2023-02-09T21:32:08.952Z,-1.00
2023-02-09T21:34:37.381Z,-1.00
2023-02-09T21:37:08.012Z,-1.00
2023-02-09T21:39:37.874Z,-0.90
2023-02-09T21:42:23.449Z,-1.00
2023-02-09T21:44:54.186Z,-0.90
2023-02-09T21:47:30.105Z,-0.80
2023-02-09T21:49:58.662Z,-0.90
2023-02-09T21:52:27.623Z,-0.90
2023-02-09T21:54:57.333Z,-0.90
2023-02-09T21:57:26.173Z,-0.90
2023-02-09T21:59:54.825Z,-0.80
2023-02-09T22:02:23.398Z,-0.90
2023-02-09T22:04:52.720Z,-0.90
2023-02-09T22:07:21.113Z,-0.80
2023-02-09T22:09:49.527Z,-0.80
2023-02-09T22:12:20.531Z,-0.80
2023-02-09T22:15:03.703Z,-0.70
2023-02-09T22:17:32.140Z,-0.90
2023-02-09T22:20:00.580Z,-0.80
2023-02-09T22:22:29.179Z,-0.90
2023-02-09T22:24:59.154Z,-0.90
2023-02-09T22:27:28.979Z,-0.90
2023-02-09T22:29:57.242Z,-0.90
2023-02-09T22:32:25.600Z,-0.90
2023-02-09T22:34:55.774Z,-0.90
2023-02-09T22:37:25.998Z,-0.80
2023-02-09T22:39:54.449Z,-0.80
2023-02-09T22:42:22.802Z,-0.80
2023-02-09T22:44:52.649Z,-0.80
2023-02-09T22:47:22.952Z,-0.80
2023-02-09T22:49:53.721Z,-0.80
2023-02-09T22:52:22.449Z,-0.80
2023-02-09T22:54:51.012Z,-0.90
2023-02-09T22:57:19.371Z,-0.90
2023-02-09T22:59:47.643Z,-0.80
2023-02-09T23:02:17.396Z,-0.80
2023-02-09T23:04:45.770Z,-0.80
2023-02-09T23:07:14.137Z,-0.70
2023-02-09T23:09:42.666Z,-0.80
2023-02-09T23:12:11.003Z,-0.80
2023-02-09T23:14:39.531Z,-0.80
2023-02-09T23:17:07.849Z,-0.70
2023-02-09T23:19:37.765Z,-0.90
2023-02-09T23:22:06.122Z,-0.80
2023-02-09T23:24:34.563Z,-0.70
2023-02-09T23:27:02.929Z,-0.90
2023-02-09T23:29:31.567Z,-0.80
2023-02-09T23:32:01.953Z,-0.80
2023-02-09T23:34:30.313Z,-0.80
2023-02-09T23:37:05.836Z,-0.80
2023-02-09T23:39:41.878Z,-0.80
2023-02-09T23:42:12.045Z,-0.70
2023-02-09T23:44:40.413Z,-0.70
2023-02-09T23:47:08.636Z,-0.80
2023-02-09T23:49:37.007Z,-0.80
2023-02-09T23:52:06.901Z,-0.80
2023-02-09T23:54:37.260Z,-0.80
2023-02-09T23:57:05.704Z,-0.70
2023-02-09T23:59:34.038Z,-0.70
